sensor_id;sensor_type;location;lat;lon;timestamp;temperature;humidity
4602;DHT22;2313;48.552;9.370;2023-02-28T00:01:26;-1.30;98.60
4602;DHT22;2313;48.552;9.370;2023-02-28T00:03:52;-1.30;98.40
4602;DHT22;2313;48.552;9.370;2023-02-28T00:06:18;-1.30;99.00
4602;DHT22;2313;48.552;9.370;2023-02-28T00:08:44;-1.30;99.20
4602;DHT22;2313;48.552;9.370;2023-02-28T00:11:11;-1.30;99.40
4602;DHT22;2313;48.552;9.370;2023-02-28T00:13:41;-1.30;99.10
4602;DHT22;2313;48.552;9.370;2023-02-28T00:16:10;-1.30;99.10
4602;DHT22;2313;48.552;9.370;2023-02-28T00:18:36;-1.30;99.70
4602;DHT22;2313;48.552;9.370;2023-02-28T00:21:02;-1.30;99.30
4602;DHT22;2313;48.552;9.370;2023-02-28T00:23:28;-1.30;99.90
4602;DHT22;2313;48.552;9.370;2023-02-28T00:25:54;-1.30;99.70
4602;DHT22;2313;48.552;9.370;2023-02-28T00:28:20;-1.30;99.60
4602;DHT22;2313;48.552;9.370;2023-02-28T00:30:46;-1.30;99.70
4602;DHT22;2313;48.552;9.370;2023-02-28T00:33:12;-1.30;99.90
4602;DHT22;2313;48.552;9.370;2023-02-28T00:35:38;-1.40;99.90
4602;DHT22;2313;48.552;9.370;2023-02-28T00:38:03;-1.40;99.90
4602;DHT22;2313;48.552;9.370;2023-02-28T00:40:29;-1.40;99.90
4602;DHT22;2313;48.552;9.370;2023-02-28T00:42:55;-1.40;99.90
4602;DHT22;2313;48.552;9.370;2023-02-28T00:45:21;-1.40;99.90
4602;DHT22;2313;48.552;9.370;2023-02-28T00:47:46;-1.40;99.90
4602;DHT22;2313;48.552;9.370;2023-02-28T00:50:18;-1.50;99.90
4602;DHT22;2313;48.552;9.370;2023-02-28T00:52:44;-1.50;99.90
4602;DHT22;2313;48.552;9.370;2023-02-28T00:55:10;-1.40;99.90
4602;DHT22;2313;48.552;9.370;2023-02-28T00:57:35;-1.40;99.90
4602;DHT22;2313;48.552;9.370;2023-02-28T01:00:01;-1.50;99.90
4602;DHT22;2313;48.552;9.370;2023-02-28T01:02:26;-1.50;99.90
4602;DHT22;2313;48.552;9.370;2023-02-28T01:04:52;-1.60;99.90
4602;DHT22;2313;48.552;9.370;2023-02-28T01:07:18;-1.60;99.90
4602;DHT22;2313;48.552;9.370;2023-02-28T01:09:46;-1.60;99.90
4602;DHT22;2313;48.552;9.370;2023-02-28T01:12:12;-1.60;99.90
4602;DHT22;2313;48.552;9.370;2023-02-28T01:14:37;-1.70;99.90
4602;DHT22;2313;48.552;9.370;2023-02-28T01:17:03;-1.70;99.90
4602;DHT22;2313;48.552;9.370;2023-02-28T01:19:28;-1.70;99.90
4602;DHT22;2313;48.552;9.370;2023-02-28T01:21:54;-1.70;99.90
4602;DHT22;2313;48.552;9.370;2023-02-28T01:24:19;-1.70;99.90
4602;DHT22;2313;48.552;9.370;2023-02-28T01:26:45;-1.70;99.90
4602;DHT22;2313;48.552;9.370;2023-02-28T01:29:11;-1.70;99.90
4602;DHT22;2313;48.552;9.370;2023-02-28T01:31:36;-1.70;99.90
4602;DHT22;2313;48.552;9.370;2023-02-28T01:34:02;-1.80;99.90
4602;DHT22;2313;48.552;9.370;2023-02-28T01:36:28;-1.80;99.90
4602;DHT22;2313;48.552;9.370;2023-02-28T01:38:54;-1.80;99.90
4602;DHT22;2313;48.552;9.370;2023-02-28T01:41:23;-1.80;99.90
4602;DHT22;2313;48.552;9.370;2023-02-28T01:46:15;-1.80;99.90
4602;DHT22;2313;48.552;9.370;2023-02-28T01:51:22;-1.80;99.90
4602;DHT22;2313;48.552;9.370;2023-02-28T01:53:56;-1.70;99.90
4602;DHT22;2313;48.552;9.370;2023-02-28T01:56:27;-1.70;99.90
4602;DHT22;2313;48.552;9.370;2023-02-28T01:58:55;-1.70;99.90
4602;DHT22;2313;48.552;9.370;2023-02-28T02:01:22;-1.70;99.90
4602;DHT22;2313;48.552;9.370;2023-02-28T02:03:54;-1.70;99.90
4602;DHT22;2313;48.552;9.370;2023-02-28T02:06:22;-1.70;99.90
4602;DHT22;2313;48.552;9.370;2023-02-28T02:08:50;-1.70;99.90
4602;DHT22;2313;48.552;9.370;2023-02-28T02:11:18;-1.60;99.90
4602;DHT22;2313;48.552;9.370;2023-02-28T02:33:02;-1.70;99.90
4602;DHT22;2313;48.552;9.370;2023-02-28T02:35:50;-1.60;99.90
4602;DHT22;2313;48.552;9.370;2023-02-28T02:38:38;-1.60;99.90
4602;DHT22;2313;48.552;9.370;2023-02-28T02:41:23;-1.70;99.90
4602;DHT22;2313;48.552;9.370;2023-02-28T02:43:53;-1.60;99.90
4602;DHT22;2313;48.552;9.370;2023-02-28T02:46:27;-1.60;99.90
4602;DHT22;2313;48.552;9.370;2023-02-28T02:48:56;-1.60;99.90
4602;DHT22;2313;48.552;9.370;2023-02-28T02:51:24;-1.60;99.90
4602;DHT22;2313;48.552;9.370;2023-02-28T02:54:14;-1.60;99.90
4602;DHT22;2313;48.552;9.370;2023-02-28T02:56:43;-1.60;99.90
4602;DHT22;2313;48.552;9.370;2023-02-28T02:59:12;-1.60;99.90
4602;DHT22;2313;48.552;9.370;2023-02-28T03:01:40;-1.60;99.90
4602;DHT22;2313;48.552;9.370;2023-02-28T03:04:13;-1.60;99.90
4602;DHT22;2313;48.552;9.370;2023-02-28T03:06:41;-1.60;99.90
4602;DHT22;2313;48.552;9.370;2023-02-28T03:09:07;-1.60;99.90
4602;DHT22;2313;48.552;9.370;2023-02-28T03:11:34;-1.60;99.90
4602;DHT22;2313;48.552;9.370;2023-02-28T03:20:02;-1.50;99.90
4602;DHT22;2313;48.552;9.370;2023-02-28T03:30:43;-1.30;99.90
4602;DHT22;2313;48.552;9.370;2023-02-28T03:33:15;-1.40;99.90
4602;DHT22;2313;48.552;9.370;2023-02-28T03:35:48;-1.40;99.90
4602;DHT22;2313;48.552;9.370;2023-02-28T03:38:44;-1.40;99.90
4602;DHT22;2313;48.552;9.370;2023-02-28T03:43:56;-1.40;99.90
4602;DHT22;2313;48.552;9.370;2023-02-28T03:46:27;-1.40;99.90
4602;DHT22;2313;48.552;9.370;2023-02-28T03:49:01;-1.50;99.90
4602;DHT22;2313;48.552;9.370;2023-02-28T03:51:29;-1.50;99.90
4602;DHT22;2313;48.552;9.370;2023-02-28T03:54:09;-1.50;99.90
4602;DHT22;2313;48.552;9.370;2023-02-28T03:56:48;-1.40;99.90
4602;DHT22;2313;48.552;9.370;2023-02-28T03:59:24;-1.50;99.90
4602;DHT22;2313;48.552;9.370;2023-02-28T04:01:51;-1.50;99.90
4602;DHT22;2313;48.552;9.370;2023-02-28T04:04:17;-1.50;99.90
4602;DHT22;2313;48.552;9.370;2023-02-28T04:06:44;-1.50;99.90
4602;DHT22;2313;48.552;9.370;2023-02-28T04:09:11;-1.50;99.90
4602;DHT22;2313;48.552;9.370;2023-02-28T04:11:40;-1.50;99.90
4602;DHT22;2313;48.552;9.370;2023-02-28T04:14:11;-1.40;99.90
4602;DHT22;2313;48.552;9.370;2023-02-28T04:16:38;-1.40;99.90
4602;DHT22;2313;48.552;9.370;2023-02-28T04:19:09;-1.40;99.90
4602;DHT22;2313;48.552;9.370;2023-02-28T04:21:37;-1.40;99.90
4602;DHT22;2313;48.552;9.370;2023-02-28T04:24:17;-1.40;99.90
4602;DHT22;2313;48.552;9.370;2023-02-28T04:26:45;-1.40;99.90
4602;DHT22;2313;48.552;9.370;2023-02-28T04:29:13;-1.40;99.90
4602;DHT22;2313;48.552;9.370;2023-02-28T04:31:39;-1.40;99.90
4602;DHT22;2313;48.552;9.370;2023-02-28T04:34:06;-1.40;99.90
4602;DHT22;2313;48.552;9.370;2023-02-28T04:36:32;-1.40;99.90
4602;DHT22;2313;48.552;9.370;2023-02-28T04:38:57;-1.40;99.90
4602;DHT22;2313;48.552;9.370;2023-02-28T04:41:23;-1.40;99.90
4602;DHT22;2313;48.552;9.370;2023-02-28T04:43:50;-1.40;99.90
4602;DHT22;2313;48.552;9.370;2023-02-28T04:46:15;-1.50;99.90
4602;DHT22;2313;48.552;9.370;2023-02-28T04:48:42;-1.50;99.90
4602;DHT22;2313;48.552;9.370;2023-02-28T04:51:11;-1.50;99.90
4602;DHT22;2313;48.552;9.370;2023-02-28T04:53:39;-1.50;99.90
4602;DHT22;2313;48.552;9.370;2023-02-28T04:56:05;-1.40;99.90
4602;DHT22;2313;48.552;9.370;2023-02-28T04:58:31;-1.40;99.90
4602;DHT22;2313;48.552;9.370;2023-02-28T05:01:04;-1.40;99.90
4602;DHT22;2313;48.552;9.370;2023-02-28T05:03:30;-1.40;99.90
4602;DHT22;2313;48.552;9.370;2023-02-28T05:05:56;-1.40;99.90
4602;DHT22;2313;48.552;9.370;2023-02-28T05:08:21;-1.40;99.90
4602;DHT22;2313;48.552;9.370;2023-02-28T05:10:47;-1.40;99.90
4602;DHT22;2313;48.552;9.370;2023-02-28T05:13:13;-1.40;99.90
4602;DHT22;2313;48.552;9.370;2023-02-28T05:15:38;-1.40;99.90
4602;DHT22;2313;48.552;9.370;2023-02-28T05:18:04;-1.40;99.90
4602;DHT22;2313;48.552;9.370;2023-02-28T05:20:30;-1.40;99.90
4602;DHT22;2313;48.552;9.370;2023-02-28T05:22:57;-1.30;99.90
4602;DHT22;2313;48.552;9.370;2023-02-28T05:25:23;-1.30;99.90
4602;DHT22;2313;48.552;9.370;2023-02-28T05:27:49;-1.40;99.90
4602;DHT22;2313;48.552;9.370;2023-02-28T05:30:15;-1.30;99.90
4602;DHT22;2313;48.552;9.370;2023-02-28T05:32:41;-1.30;99.90
4602;DHT22;2313;48.552;9.370;2023-02-28T05:35:11;-1.30;99.90
4602;DHT22;2313;48.552;9.370;2023-02-28T05:37:38;-1.20;99.90
4602;DHT22;2313;48.552;9.370;2023-02-28T05:40:05;-1.20;99.90
4602;DHT22;2313;48.552;9.370;2023-02-28T05:42:37;-1.20;99.90
4602;DHT22;2313;48.552;9.370;2023-02-28T05:45:07;-1.20;99.90
4602;DHT22;2313;48.552;9.370;2023-02-28T05:47:33;-1.20;99.90
4602;DHT22;2313;48.552;9.370;2023-02-28T05:49:58;-1.20;99.90
4602;DHT22;2313;48.552;9.370;2023-02-28T05:52:24;-1.20;99.90
4602;DHT22;2313;48.552;9.370;2023-02-28T05:54:49;-1.10;99.90
4602;DHT22;2313;48.552;9.370;2023-02-28T05:57:15;-1.20;99.90
4602;DHT22;2313;48.552;9.370;2023-02-28T05:59:41;-1.20;99.90
4602;DHT22;2313;48.552;9.370;2023-02-28T06:02:11;-1.20;99.90
4602;DHT22;2313;48.552;9.370;2023-02-28T06:04:37;-1.10;99.90
4602;DHT22;2313;48.552;9.370;2023-02-28T06:07:03;-1.10;99.90
4602;DHT22;2313;48.552;9.370;2023-02-28T06:09:28;-1.10;99.90
4602;DHT22;2313;48.552;9.370;2023-02-28T06:11:56;-1.10;99.90
4602;DHT22;2313;48.552;9.370;2023-02-28T06:14:22;-1.10;99.90
4602;DHT22;2313;48.552;9.370;2023-02-28T06:16:48;-1.10;99.90
4602;DHT22;2313;48.552;9.370;2023-02-28T06:19:13;-1.00;99.90
4602;DHT22;2313;48.552;9.370;2023-02-28T06:21:40;-1.00;99.90
4602;DHT22;2313;48.552;9.370;2023-02-28T06:24:06;-1.00;99.90
4602;DHT22;2313;48.552;9.370;2023-02-28T06:26:32;-1.00;99.90
4602;DHT22;2313;48.552;9.370;2023-02-28T06:28:57;-0.90;99.90
4602;DHT22;2313;48.552;9.370;2023-02-28T06:31:23;-0.90;99.90
4602;DHT22;2313;48.552;9.370;2023-02-28T06:33:51;-0.90;99.90
4602;DHT22;2313;48.552;9.370;2023-02-28T06:36:17;-1.00;99.90
4602;DHT22;2313;48.552;9.370;2023-02-28T06:38:43;-1.00;99.90
4602;DHT22;2313;48.552;9.370;2023-02-28T06:41:09;-0.90;99.90
4602;DHT22;2313;48.552;9.370;2023-02-28T06:43:37;-0.90;99.90
4602;DHT22;2313;48.552;9.370;2023-02-28T06:46:05;-0.80;99.90
4602;DHT22;2313;48.552;9.370;2023-02-28T06:48:31;-0.80;99.90
4602;DHT22;2313;48.552;9.370;2023-02-28T06:51:11;-0.80;99.90
4602;DHT22;2313;48.552;9.370;2023-02-28T06:53:38;-0.80;99.90
4602;DHT22;2313;48.552;9.370;2023-02-28T06:56:13;-0.70;99.90
4602;DHT22;2313;48.552;9.370;2023-02-28T06:58:39;-0.70;99.90
4602;DHT22;2313;48.552;9.370;2023-02-28T07:01:06;-0.60;99.90
4602;DHT22;2313;48.552;9.370;2023-02-28T07:03:32;-0.60;99.90
4602;DHT22;2313;48.552;9.370;2023-02-28T07:05:58;-0.70;99.90
4602;DHT22;2313;48.552;9.370;2023-02-28T07:08:24;-0.80;99.90
4602;DHT22;2313;48.552;9.370;2023-02-28T07:10:54;-0.80;99.90
4602;DHT22;2313;48.552;9.370;2023-02-28T07:13:20;-0.80;99.90
4602;DHT22;2313;48.552;9.370;2023-02-28T07:15:54;-0.70;99.90
4602;DHT22;2313;48.552;9.370;2023-02-28T07:18:19;-0.80;99.90
4602;DHT22;2313;48.552;9.370;2023-02-28T07:20:45;-0.80;99.90
4602;DHT22;2313;48.552;9.370;2023-02-28T07:23:10;-0.70;99.90
4602;DHT22;2313;48.552;9.370;2023-02-28T07:25:36;-0.70;99.90
4602;DHT22;2313;48.552;9.370;2023-02-28T07:28:02;-0.70;99.90
4602;DHT22;2313;48.552;9.370;2023-02-28T07:30:27;-0.70;99.90
4602;DHT22;2313;48.552;9.370;2023-02-28T07:32:53;-0.70;99.90
4602;DHT22;2313;48.552;9.370;2023-02-28T07:35:21;-0.70;99.90
4602;DHT22;2313;48.552;9.370;2023-02-28T07:37:47;-0.60;99.90
4602;DHT22;2313;48.552;9.370;2023-02-28T07:40:13;-0.50;99.90
4602;DHT22;2313;48.552;9.370;2023-02-28T07:42:39;-0.50;99.90
4602;DHT22;2313;48.552;9.370;2023-02-28T07:45:06;-0.50;99.90
4602;DHT22;2313;48.552;9.370;2023-02-28T07:47:32;-0.40;99.90
4602;DHT22;2313;48.552;9.370;2023-02-28T07:49:59;-0.40;99.90
4602;DHT22;2313;48.552;9.370;2023-02-28T07:52:24;-0.30;99.90
4602;DHT22;2313;48.552;9.370;2023-02-28T07:54:51;-0.30;99.90
4602;DHT22;2313;48.552;9.370;2023-02-28T07:57:17;-0.20;99.90
4602;DHT22;2313;48.552;9.370;2023-02-28T07:59:42;-0.30;99.90
4602;DHT22;2313;48.552;9.370;2023-02-28T08:02:18;-0.40;99.90
4602;DHT22;2313;48.552;9.370;2023-02-28T08:04:44;-0.50;99.90
4602;DHT22;2313;48.552;9.370;2023-02-28T08:07:11;-0.40;99.90
4602;DHT22;2313;48.552;9.370;2023-02-28T08:09:39;-0.50;99.90
4602;DHT22;2313;48.552;9.370;2023-02-28T08:12:05;-0.50;99.90
4602;DHT22;2313;48.552;9.370;2023-02-28T08:14:31;-0.50;99.90
4602;DHT22;2313;48.552;9.370;2023-02-28T08:16:57;-0.50;99.90
4602;DHT22;2313;48.552;9.370;2023-02-28T08:19:22;-0.70;99.90
4602;DHT22;2313;48.552;9.370;2023-02-28T08:21:48;-0.70;99.90
4602;DHT22;2313;48.552;9.370;2023-02-28T08:24:13;-0.70;99.90
4602;DHT22;2313;48.552;9.370;2023-02-28T08:26:39;-0.50;99.90
4602;DHT22;2313;48.552;9.370;2023-02-28T08:29:05;-0.40;99.90
4602;DHT22;2313;48.552;9.370;2023-02-28T08:31:30;-0.40;99.90
4602;DHT22;2313;48.552;9.370;2023-02-28T08:33:56;-0.40;99.90
4602;DHT22;2313;48.552;9.370;2023-02-28T08:36:24;-0.50;99.90
4602;DHT22;2313;48.552;9.370;2023-02-28T08:38:50;-0.40;99.90
4602;DHT22;2313;48.552;9.370;2023-02-28T08:41:16;-0.20;99.90
4602;DHT22;2313;48.552;9.370;2023-02-28T08:43:41;-0.20;99.90
4602;DHT22;2313;48.552;9.370;2023-02-28T08:46:08;0.00;99.90
4602;DHT22;2313;48.552;9.370;2023-02-28T08:48:36;0.00;99.90
4602;DHT22;2313;48.552;9.370;2023-02-28T08:51:12;0.00;99.90
4602;DHT22;2313;48.552;9.370;2023-02-28T08:53:39;0.00;99.90
4602;DHT22;2313;48.552;9.370;2023-02-28T08:58:31;0.00;99.90
4602;DHT22;2313;48.552;9.370;2023-02-28T09:00:57;0.10;99.90
4602;DHT22;2313;48.552;9.370;2023-02-28T09:03:23;0.10;99.90
4602;DHT22;2313;48.552;9.370;2023-02-28T09:05:56;0.20;99.90
4602;DHT22;2313;48.552;9.370;2023-02-28T09:08:23;0.20;99.90
4602;DHT22;2313;48.552;9.370;2023-02-28T09:10:49;0.30;99.90
4602;DHT22;2313;48.552;9.370;2023-02-28T09:13:14;0.40;99.90
4602;DHT22;2313;48.552;9.370;2023-02-28T09:15:40;0.50;99.90
4602;DHT22;2313;48.552;9.370;2023-02-28T09:18:06;0.70;99.90
4602;DHT22;2313;48.552;9.370;2023-02-28T09:20:31;0.50;98.50
4602;DHT22;2313;48.552;9.370;2023-02-28T09:22:57;0.50;99.70
4602;DHT22;2313;48.552;9.370;2023-02-28T09:25:22;0.60;99.40
4602;DHT22;2313;48.552;9.370;2023-02-28T09:27:48;0.70;99.40
4602;DHT22;2313;48.552;9.370;2023-02-28T09:30:14;0.70;98.30
4602;DHT22;2313;48.552;9.370;2023-02-28T09:32:40;0.70;99.50
4602;DHT22;2313;48.552;9.370;2023-02-28T09:35:06;0.70;98.00
4602;DHT22;2313;48.552;9.370;2023-02-28T09:37:31;0.70;98.30
4602;DHT22;2313;48.552;9.370;2023-02-28T09:39:57;0.80;99.00
4602;DHT22;2313;48.552;9.370;2023-02-28T09:42:31;0.70;97.60
4602;DHT22;2313;48.552;9.370;2023-02-28T09:45:00;0.60;97.90
4602;DHT22;2313;48.552;9.370;2023-02-28T09:47:31;0.50;98.20
4602;DHT22;2313;48.552;9.370;2023-02-28T09:50:06;0.70;98.40
4602;DHT22;2313;48.552;9.370;2023-02-28T09:52:37;0.80;98.30
4602;DHT22;2313;48.552;9.370;2023-02-28T09:55:25;0.70;97.40
4602;DHT22;2313;48.552;9.370;2023-02-28T09:57:54;0.80;97.40
4602;DHT22;2313;48.552;9.370;2023-02-28T10:00:30;0.90;97.70
4602;DHT22;2313;48.552;9.370;2023-02-28T10:03:50;0.90;98.20
4602;DHT22;2313;48.552;9.370;2023-02-28T10:06:17;0.90;97.10
4602;DHT22;2313;48.552;9.370;2023-02-28T10:11:22;0.60;97.70
4602;DHT22;2313;48.552;9.370;2023-02-28T10:16:37;1.00;98.20
4602;DHT22;2313;48.552;9.370;2023-02-28T10:19:12;1.10;97.30
4602;DHT22;2313;48.552;9.370;2023-02-28T10:21:45;1.20;96.10
4602;DHT22;2313;48.552;9.370;2023-02-28T10:24:39;1.10;96.40
4602;DHT22;2313;48.552;9.370;2023-02-28T10:27:26;1.50;96.10
4602;DHT22;2313;48.552;9.370;2023-02-28T10:29:59;1.80;95.00
4602;DHT22;2313;48.552;9.370;2023-02-28T10:32:29;1.90;94.60
4602;DHT22;2313;48.552;9.370;2023-02-28T10:37:41;2.10;94.80
4602;DHT22;2313;48.552;9.370;2023-02-28T10:43:00;3.10;92.30
4602;DHT22;2313;48.552;9.370;2023-02-28T10:45:30;3.50;91.60
4602;DHT22;2313;48.552;9.370;2023-02-28T10:53:31;4.00;90.70
4602;DHT22;2313;48.552;9.370;2023-02-28T10:58:57;4.00;87.80
4602;DHT22;2313;48.552;9.370;2023-02-28T11:04:04;4.50;85.50
4602;DHT22;2313;48.552;9.370;2023-02-28T11:06:41;3.80;85.50
4602;DHT22;2313;48.552;9.370;2023-02-28T11:09:38;4.30;89.10
4602;DHT22;2313;48.552;9.370;2023-02-28T11:12:06;5.00;84.80
4602;DHT22;2313;48.552;9.370;2023-02-28T11:15:03;5.70;84.30
4602;DHT22;2313;48.552;9.370;2023-02-28T11:17:33;6.30;79.50
4602;DHT22;2313;48.552;9.370;2023-02-28T11:20:06;6.50;79.10
4602;DHT22;2313;48.552;9.370;2023-02-28T11:22:36;6.90;77.90
4602;DHT22;2313;48.552;9.370;2023-02-28T11:25:09;7.20;75.40
4602;DHT22;2313;48.552;9.370;2023-02-28T11:27:50;7.90;71.90
4602;DHT22;2313;48.552;9.370;2023-02-28T11:32:57;7.30;68.40
4602;DHT22;2313;48.552;9.370;2023-02-28T11:35:38;6.60;69.00
4602;DHT22;2313;48.552;9.370;2023-02-28T11:38:10;6.50;70.80
4602;DHT22;2313;48.552;9.370;2023-02-28T11:43:40;7.90;68.60
4602;DHT22;2313;48.552;9.370;2023-02-28T11:46:35;8.40;69.30
4602;DHT22;2313;48.552;9.370;2023-02-28T11:52:20;8.50;66.20
4602;DHT22;2313;48.552;9.370;2023-02-28T12:03:38;9.30;65.80
4602;DHT22;2313;48.552;9.370;2023-02-28T12:06:22;9.10;62.90
4602;DHT22;2313;48.552;9.370;2023-02-28T12:26:31;9.60;59.20
4602;DHT22;2313;48.552;9.370;2023-02-28T12:29:21;9.50;59.90
4602;DHT22;2313;48.552;9.370;2023-02-28T12:31:53;9.40;60.10
4602;DHT22;2313;48.552;9.370;2023-02-28T12:34:27;9.10;59.70
4602;DHT22;2313;48.552;9.370;2023-02-28T12:36:56;8.80;59.80
4602;DHT22;2313;48.552;9.370;2023-02-28T12:39:28;8.40;58.50
4602;DHT22;2313;48.552;9.370;2023-02-28T12:42:00;8.30;60.10
4602;DHT22;2313;48.552;9.370;2023-02-28T12:44:32;8.20;60.80
4602;DHT22;2313;48.552;9.370;2023-02-28T12:47:03;8.00;61.30
4602;DHT22;2313;48.552;9.370;2023-02-28T12:49:39;8.20;61.40
4602;DHT22;2313;48.552;9.370;2023-02-28T12:52:08;8.50;60.80
4602;DHT22;2313;48.552;9.370;2023-02-28T12:54:40;8.60;58.90
4602;DHT22;2313;48.552;9.370;2023-02-28T12:59:58;8.50;60.20
4602;DHT22;2313;48.552;9.370;2023-02-28T13:02:56;8.70;61.20
4602;DHT22;2313;48.552;9.370;2023-02-28T13:08:11;8.80;60.50
4602;DHT22;2313;48.552;9.370;2023-02-28T13:10:46;8.90;60.00
4602;DHT22;2313;48.552;9.370;2023-02-28T13:13:18;8.90;59.40
4602;DHT22;2313;48.552;9.370;2023-02-28T13:16:09;8.90;59.30
4602;DHT22;2313;48.552;9.370;2023-02-28T13:18:41;8.90;58.30
4602;DHT22;2313;48.552;9.370;2023-02-28T13:21:28;8.90;59.10
4602;DHT22;2313;48.552;9.370;2023-02-28T13:24:04;8.80;59.80
4602;DHT22;2313;48.552;9.370;2023-02-28T13:35:34;9.10;59.10
4602;DHT22;2313;48.552;9.370;2023-02-28T13:42:55;8.50;58.60
4602;DHT22;2313;48.552;9.370;2023-02-28T13:48:00;8.70;57.90
4602;DHT22;2313;48.552;9.370;2023-02-28T13:50:28;8.30;57.80
4602;DHT22;2313;48.552;9.370;2023-02-28T14:09:37;8.40;59.50
4602;DHT22;2313;48.552;9.370;2023-02-28T14:11:44;8.10;60.30
4602;DHT22;2313;48.552;9.370;2023-02-28T14:17:08;8.20;59.70
4602;DHT22;2313;48.552;9.370;2023-02-28T14:19:38;8.20;59.20
4602;DHT22;2313;48.552;9.370;2023-02-28T14:24:58;8.00;59.90
4602;DHT22;2313;48.552;9.370;2023-02-28T14:30:26;8.00;60.30
4602;DHT22;2313;48.552;9.370;2023-02-28T14:38:17;8.00;61.20
4602;DHT22;2313;48.552;9.370;2023-02-28T14:40:45;7.80;59.60
4602;DHT22;2313;48.552;9.370;2023-02-28T14:43:23;7.80;60.70
4602;DHT22;2313;48.552;9.370;2023-02-28T14:45:58;7.80;61.10
4602;DHT22;2313;48.552;9.370;2023-02-28T14:48:24;7.70;61.50
4602;DHT22;2313;48.552;9.370;2023-02-28T14:50:54;7.60;60.90
4602;DHT22;2313;48.552;9.370;2023-02-28T14:53:23;7.50;61.40
4602;DHT22;2313;48.552;9.370;2023-02-28T14:55:50;7.60;62.70
4602;DHT22;2313;48.552;9.370;2023-02-28T14:58:25;7.50;61.40
4602;DHT22;2313;48.552;9.370;2023-02-28T15:00:54;7.50;61.40
4602;DHT22;2313;48.552;9.370;2023-02-28T15:03:34;7.40;61.30
4602;DHT22;2313;48.552;9.370;2023-02-28T15:06:05;7.40;62.70
4602;DHT22;2313;48.552;9.370;2023-02-28T15:08:32;7.30;61.60
4602;DHT22;2313;48.552;9.370;2023-02-28T15:11:04;7.30;62.70
4602;DHT22;2313;48.552;9.370;2023-02-28T15:13:43;7.20;63.00
4602;DHT22;2313;48.552;9.370;2023-02-28T15:16:19;7.30;62.20
4602;DHT22;2313;48.552;9.370;2023-02-28T15:18:49;6.90;62.70
4602;DHT22;2313;48.552;9.370;2023-02-28T15:21:22;6.90;62.70
4602;DHT22;2313;48.552;9.370;2023-02-28T15:23:56;6.80;62.90
4602;DHT22;2313;48.552;9.370;2023-02-28T15:26:27;6.70;63.30
4602;DHT22;2313;48.552;9.370;2023-02-28T15:29:00;6.70;64.70
4602;DHT22;2313;48.552;9.370;2023-02-28T15:31:29;6.70;64.90
4602;DHT22;2313;48.552;9.370;2023-02-28T15:33:58;6.70;63.70
4602;DHT22;2313;48.552;9.370;2023-02-28T15:36:30;6.70;64.80
4602;DHT22;2313;48.552;9.370;2023-02-28T15:38:57;6.50;65.00
4602;DHT22;2313;48.552;9.370;2023-02-28T15:41:31;6.50;65.80
4602;DHT22;2313;48.552;9.370;2023-02-28T15:47:06;6.40;65.20
4602;DHT22;2313;48.552;9.370;2023-02-28T15:49:48;6.10;64.30
4602;DHT22;2313;48.552;9.370;2023-02-28T15:52:43;6.00;66.80
4602;DHT22;2313;48.552;9.370;2023-02-28T15:55:26;6.10;66.40
4602;DHT22;2313;48.552;9.370;2023-02-28T15:58:00;6.00;67.40
4602;DHT22;2313;48.552;9.370;2023-02-28T16:00:28;5.90;66.60
4602;DHT22;2313;48.552;9.370;2023-02-28T16:02:54;5.90;67.30
4602;DHT22;2313;48.552;9.370;2023-02-28T16:05:23;5.90;66.70
4602;DHT22;2313;48.552;9.370;2023-02-28T16:07:54;5.90;67.80
4602;DHT22;2313;48.552;9.370;2023-02-28T16:10:20;5.70;66.50
4602;DHT22;2313;48.552;9.370;2023-02-28T16:12:46;5.70;66.80
4602;DHT22;2313;48.552;9.370;2023-02-28T16:15:18;5.60;67.00
4602;DHT22;2313;48.552;9.370;2023-02-28T16:17:44;5.50;68.30
4602;DHT22;2313;48.552;9.370;2023-02-28T16:22:39;5.50;68.70
4602;DHT22;2313;48.552;9.370;2023-02-28T16:25:05;5.40;68.70
4602;DHT22;2313;48.552;9.370;2023-02-28T16:27:36;5.40;69.10
4602;DHT22;2313;48.552;9.370;2023-02-28T16:30:04;5.40;69.00
4602;DHT22;2313;48.552;9.370;2023-02-28T16:32:32;5.20;69.00
4602;DHT22;2313;48.552;9.370;2023-02-28T16:34:59;5.10;68.60
4602;DHT22;2313;48.552;9.370;2023-02-28T16:37:26;5.00;69.10
4602;DHT22;2313;48.552;9.370;2023-02-28T16:39:52;4.90;70.30
4602;DHT22;2313;48.552;9.370;2023-02-28T16:42:27;4.90;69.90
4602;DHT22;2313;48.552;9.370;2023-02-28T16:44:54;4.80;70.00
4602;DHT22;2313;48.552;9.370;2023-02-28T16:47:20;4.80;70.40
4602;DHT22;2313;48.552;9.370;2023-02-28T16:49:46;4.70;70.80
4602;DHT22;2313;48.552;9.370;2023-02-28T16:52:13;4.70;70.90
4602;DHT22;2313;48.552;9.370;2023-02-28T16:54:39;4.60;71.80
4602;DHT22;2313;48.552;9.370;2023-02-28T16:57:06;4.60;73.10
4602;DHT22;2313;48.552;9.370;2023-02-28T16:59:40;4.50;73.10
4602;DHT22;2313;48.552;9.370;2023-02-28T17:02:12;4.40;74.20
4602;DHT22;2313;48.552;9.370;2023-02-28T17:04:38;4.30;76.70
4602;DHT22;2313;48.552;9.370;2023-02-28T17:07:03;4.20;78.50
4602;DHT22;2313;48.552;9.370;2023-02-28T17:09:29;4.00;79.80
4602;DHT22;2313;48.552;9.370;2023-02-28T17:11:54;3.90;80.80
4602;DHT22;2313;48.552;9.370;2023-02-28T17:14:21;3.80;81.50
4602;DHT22;2313;48.552;9.370;2023-02-28T17:16:48;3.70;82.80
4602;DHT22;2313;48.552;9.370;2023-02-28T17:19:16;3.60;83.20
4602;DHT22;2313;48.552;9.370;2023-02-28T17:21:42;3.50;84.60
4602;DHT22;2313;48.552;9.370;2023-02-28T17:24:09;3.50;84.40
4602;DHT22;2313;48.552;9.370;2023-02-28T17:26:41;3.50;85.20
4602;DHT22;2313;48.552;9.370;2023-02-28T17:29:19;3.40;85.10
4602;DHT22;2313;48.552;9.370;2023-02-28T17:31:45;3.40;85.40
4602;DHT22;2313;48.552;9.370;2023-02-28T17:34:11;3.40;85.50
4602;DHT22;2313;48.552;9.370;2023-02-28T17:36:46;3.30;86.60
4602;DHT22;2313;48.552;9.370;2023-02-28T17:39:13;3.20;87.60
4602;DHT22;2313;48.552;9.370;2023-02-28T17:41:41;3.20;87.90
4602;DHT22;2313;48.552;9.370;2023-02-28T17:44:08;3.10;88.40
4602;DHT22;2313;48.552;9.370;2023-02-28T17:46:34;3.00;88.60
4602;DHT22;2313;48.552;9.370;2023-02-28T17:49:00;3.00;89.80
4602;DHT22;2313;48.552;9.370;2023-02-28T17:51:25;2.90;90.30
4602;DHT22;2313;48.552;9.370;2023-02-28T17:53:52;2.80;90.60
4602;DHT22;2313;48.552;9.370;2023-02-28T17:56:21;2.80;91.10
4602;DHT22;2313;48.552;9.370;2023-02-28T17:58:49;2.70;91.20
4602;DHT22;2313;48.552;9.370;2023-02-28T18:01:14;2.70;91.40
4602;DHT22;2313;48.552;9.370;2023-02-28T18:03:40;2.70;91.60
4602;DHT22;2313;48.552;9.370;2023-02-28T18:06:07;2.60;91.70
4602;DHT22;2313;48.552;9.370;2023-02-28T18:08:36;2.50;92.10
4602;DHT22;2313;48.552;9.370;2023-02-28T18:11:02;2.50;92.20
4602;DHT22;2313;48.552;9.370;2023-02-28T18:13:27;2.40;92.80
4602;DHT22;2313;48.552;9.370;2023-02-28T18:15:54;2.30;93.50
4602;DHT22;2313;48.552;9.370;2023-02-28T18:18:19;2.30;94.00
4602;DHT22;2313;48.552;9.370;2023-02-28T18:20:45;2.10;94.50
4602;DHT22;2313;48.552;9.370;2023-02-28T18:23:13;2.00;95.20
4602;DHT22;2313;48.552;9.370;2023-02-28T18:25:39;2.00;95.70
4602;DHT22;2313;48.552;9.370;2023-02-28T18:28:06;1.90;95.60
4602;DHT22;2313;48.552;9.370;2023-02-28T18:30:35;1.80;96.30
4602;DHT22;2313;48.552;9.370;2023-02-28T18:33:02;1.60;97.40
4602;DHT22;2313;48.552;9.370;2023-02-28T18:35:29;1.60;98.80
4602;DHT22;2313;48.552;9.370;2023-02-28T18:38:03;1.60;98.80
4602;DHT22;2313;48.552;9.370;2023-02-28T18:40:29;1.50;98.90
4602;DHT22;2313;48.552;9.370;2023-02-28T18:42:55;1.40;99.40
4602;DHT22;2313;48.552;9.370;2023-02-28T18:45:21;1.30;99.90
4602;DHT22;2313;48.552;9.370;2023-02-28T18:47:46;1.30;99.90
4602;DHT22;2313;48.552;9.370;2023-02-28T18:50:12;1.20;99.90
4602;DHT22;2313;48.552;9.370;2023-02-28T18:52:40;1.20;99.90
4602;DHT22;2313;48.552;9.370;2023-02-28T18:55:07;1.20;99.90
4602;DHT22;2313;48.552;9.370;2023-02-28T18:57:33;1.20;99.90
4602;DHT22;2313;48.552;9.370;2023-02-28T18:59:59;1.10;99.90
4602;DHT22;2313;48.552;9.370;2023-02-28T19:02:24;1.10;99.90